createdAt,value
2023-09-17T00:00:54.892Z,100.00
2023-09-17T00:03:21.188Z,100.00
2023-09-17T00:05:47.428Z,100.00
2023-09-17T00:08:13.676Z,100.00
2023-09-17T00:10:40.003Z,100.00
2023-09-17T00:13:06.244Z,100.00
2023-09-17T00:15:32.429Z,100.00
2023-09-17T00:17:58.694Z,100.00
2023-09-17T00:20:24.913Z,100.00
2023-09-17T00:22:51.116Z,100.00
2023-09-17T00:25:17.451Z,100.00
2023-09-17T00:27:43.683Z,100.00
2023-09-17T00:30:09.901Z,100.00
2023-09-17T00:32:36.225Z,100.00
2023-09-17T00:35:02.499Z,100.00
2023-09-17T00:37:28.777Z,100.00
2023-09-17T00:39:54.989Z,100.00
2023-09-17T00:42:21.203Z,100.00
2023-09-17T00:44:47.480Z,100.00
2023-09-17T00:47:13.782Z,100.00
2023-09-17T00:49:40.055Z,100.00
2023-09-17T00:52:06.281Z,100.00
2023-09-17T00:54:32.454Z,100.00
2023-09-17T00:56:58.633Z,100.00
2023-09-17T00:59:24.872Z,100.00
2023-09-17T01:01:51.151Z,100.00
2023-09-17T01:04:17.494Z,100.00
2023-09-17T01:06:43.766Z,100.00
2023-09-17T01:09:09.991Z,100.00
2023-09-17T01:11:36.207Z,100.00
2023-09-17T01:14:02.462Z,100.00
2023-09-17T01:16:28.730Z,100.00
2023-09-17T01:18:55.013Z,100.00
2023-09-17T01:21:21.220Z,100.00
2023-09-17T01:23:47.390Z,100.00
2023-09-17T01:26:13.621Z,100.00
2023-09-17T01:28:39.894Z,100.00
2023-09-17T01:31:06.141Z,100.00
2023-09-17T01:33:32.379Z,100.00
2023-09-17T01:35:58.578Z,100.00
2023-09-17T01:38:24.962Z,100.00
2023-09-17T01:40:51.238Z,100.00
2023-09-17T01:43:17.534Z,100.00
2023-09-17T01:45:43.746Z,100.00
2023-09-17T01:48:09.974Z,100.00
2023-09-17T01:50:36.185Z,100.00
2023-09-17T01:53:02.406Z,100.00
2023-09-17T01:55:28.699Z,100.00
2023-09-17T01:57:54.910Z,100.00
2023-09-17T02:00:21.137Z,100.00
2023-09-17T02:02:47.458Z,100.00
2023-09-17T02:05:13.715Z,100.00
2023-09-17T02:07:39.931Z,100.00
2023-09-17T02:10:06.194Z,100.00
2023-09-17T02:12:32.394Z,100.00
2023-09-17T02:14:58.628Z,100.00
2023-09-17T02:17:25.123Z,100.00
2023-09-17T02:19:51.468Z,100.00
2023-09-17T02:22:17.758Z,100.00
2023-09-17T02:24:43.975Z,100.00
2023-09-17T02:27:10.188Z,100.00
2023-09-17T02:29:36.399Z,100.00
2023-09-17T02:32:02.737Z,100.00
2023-09-17T02:34:28.962Z,100.00
2023-09-17T02:36:55.190Z,100.00
2023-09-17T02:39:21.404Z,100.00
2023-09-17T02:41:47.647Z,100.00
2023-09-17T02:44:13.874Z,100.00
2023-09-17T02:46:40.174Z,100.00
2023-09-17T02:49:06.430Z,100.00
2023-09-17T02:51:32.649Z,100.00
2023-09-17T02:53:58.844Z,100.00
2023-09-17T02:56:25.072Z,100.00
2023-09-17T02:58:51.346Z,100.00
2023-09-17T03:01:17.678Z,100.00
2023-09-17T03:03:43.897Z,100.00
2023-09-17T03:06:10.135Z,100.00
2023-09-17T03:08:36.386Z,100.00
2023-09-17T03:11:02.597Z,100.00
2023-09-17T03:13:28.828Z,100.00
2023-09-17T03:15:55.120Z,100.00
2023-09-17T03:18:21.333Z,100.00
2023-09-17T03:20:47.594Z,100.00
2023-09-17T03:23:13.851Z,100.00
2023-09-17T03:25:40.101Z,100.00
2023-09-17T03:28:06.314Z,100.00
2023-09-17T03:30:32.516Z,100.00
2023-09-17T03:33:04.966Z,100.00
2023-09-17T03:35:31.891Z,100.00
2023-09-17T03:37:58.125Z,100.00
2023-09-17T03:40:24.317Z,100.00
2023-09-17T03:42:50.502Z,100.00
2023-09-17T03:45:16.744Z,100.00
2023-09-17T03:47:43.051Z,100.00
2023-09-17T03:50:09.291Z,100.00
2023-09-17T03:52:35.566Z,100.00
2023-09-17T03:55:01.742Z,100.00
2023-09-17T03:57:27.945Z,100.00
2023-09-17T03:59:54.195Z,100.00
2023-09-17T04:02:20.456Z,100.00
2023-09-17T04:04:46.782Z,100.00
2023-09-17T04:07:13.086Z,100.00
2023-09-17T04:09:39.298Z,100.00
2023-09-17T04:12:05.488Z,100.00
2023-09-17T04:14:31.670Z,100.00
2023-09-17T04:16:58.067Z,100.00
2023-09-17T04:19:24.350Z,100.00
2023-09-17T04:21:50.599Z,100.00
2023-09-17T04:24:16.825Z,100.00
2023-09-17T04:26:43.055Z,100.00
2023-09-17T04:29:09.238Z,100.00
2023-09-17T04:31:35.536Z,100.00
2023-09-17T04:34:01.804Z,100.00
2023-09-17T04:36:27.987Z,100.00
2023-09-17T04:38:54.211Z,100.00
2023-09-17T04:41:20.453Z,100.00
2023-09-17T04:43:46.699Z,100.00
2023-09-17T04:46:12.987Z,100.00
2023-09-17T04:48:39.204Z,100.00
2023-09-17T04:51:05.481Z,100.00
2023-09-17T04:53:31.678Z,100.00
2023-09-17T04:55:58.144Z,100.00
2023-09-17T04:58:24.434Z,100.00
2023-09-17T05:00:50.684Z,100.00
2023-09-17T05:03:17.040Z,100.00
2023-09-17T05:05:43.406Z,100.00
2023-09-17T05:08:09.670Z,100.00
2023-09-17T05:10:35.945Z,100.00
2023-09-17T05:13:02.205Z,100.00
2023-09-17T05:15:28.473Z,100.00
2023-09-17T05:17:54.763Z,100.00
2023-09-17T05:20:20.970Z,100.00
2023-09-17T05:22:47.246Z,100.00
2023-09-17T05:25:13.455Z,100.00
2023-09-17T05:27:39.693Z,100.00
2023-09-17T05:30:05.941Z,100.00
2023-09-17T05:32:32.419Z,100.00
2023-09-17T05:34:58.684Z,100.00
2023-09-17T05:37:24.932Z,100.00
2023-09-17T05:39:51.244Z,100.00
2023-09-17T05:42:17.573Z,100.00
2023-09-17T05:44:55.706Z,100.00
2023-09-17T05:47:21.930Z,100.00
2023-09-17T05:49:48.418Z,100.00
2023-09-17T05:52:14.680Z,100.00
2023-09-17T05:54:40.851Z,100.00
2023-09-17T05:57:07.041Z,100.00
2023-09-17T05:59:33.392Z,100.00
2023-09-17T06:01:59.616Z,100.00
2023-09-17T06:04:25.899Z,100.00
2023-09-17T06:06:52.120Z,100.00
2023-09-17T06:09:18.346Z,100.00
2023-09-17T06:11:44.539Z,100.00
2023-09-17T06:14:10.790Z,100.00
2023-09-17T06:16:54.038Z,100.00
2023-09-17T06:19:32.144Z,100.00
2023-09-17T06:21:58.435Z,100.00
2023-09-17T06:24:24.582Z,100.00
2023-09-17T06:26:50.749Z,100.00
2023-09-17T06:29:16.948Z,100.00
2023-09-17T06:31:43.267Z,100.00
2023-09-17T06:34:09.536Z,100.00
2023-09-17T06:36:44.626Z,100.00
2023-09-17T06:39:10.845Z,100.00
2023-09-17T06:41:39.664Z,100.00
2023-09-17T06:44:07.334Z,100.00
2023-09-17T06:46:33.994Z,100.00
2023-09-17T06:49:00.330Z,100.00
2023-09-17T06:51:26.613Z,100.00
2023-09-17T06:53:53.142Z,100.00
2023-09-17T06:56:19.636Z,100.00
2023-09-17T06:58:45.915Z,100.00
2023-09-17T07:01:12.218Z,100.00
2023-09-17T07:03:38.472Z,100.00
2023-09-17T07:06:04.846Z,100.00
2023-09-17T07:08:31.113Z,100.00
2023-09-17T07:10:57.364Z,100.00
2023-09-17T07:13:23.676Z,100.00
2023-09-17T07:15:49.967Z,100.00
2023-09-17T07:18:16.326Z,100.00
2023-09-17T07:20:42.651Z,100.00
2023-09-17T07:23:08.892Z,100.00
2023-09-17T07:25:35.405Z,100.00
2023-09-17T07:31:00.934Z,100.00
2023-09-17T07:33:27.654Z,100.00
2023-09-17T07:35:53.975Z,100.00
2023-09-17T07:38:20.371Z,100.00
2023-09-17T07:40:46.721Z,100.00
2023-09-17T07:43:12.992Z,100.00
2023-09-17T07:45:39.218Z,100.00
2023-09-17T07:48:05.537Z,100.00
2023-09-17T07:50:31.816Z,100.00
2023-09-17T07:52:58.067Z,100.00
2023-09-17T07:55:24.355Z,100.00
2023-09-17T07:57:50.563Z,100.00
2023-09-17T08:00:16.788Z,100.00
2023-09-17T08:02:43.183Z,100.00
2023-09-17T08:05:09.530Z,100.00
2023-09-17T08:07:35.804Z,100.00
2023-09-17T08:10:02.115Z,100.00
2023-09-17T08:12:28.317Z,100.00
2023-09-17T08:14:55.599Z,100.00
2023-09-17T08:17:21.927Z,100.00
2023-09-17T08:19:48.216Z,100.00
2023-09-17T08:22:14.477Z,100.00
2023-09-17T08:24:40.643Z,100.00
2023-09-17T08:27:06.885Z,100.00
2023-09-17T08:29:33.072Z,100.00
2023-09-17T08:31:59.486Z,100.00
2023-09-17T08:34:25.815Z,100.00
2023-09-17T08:36:52.046Z,100.00
2023-09-17T08:39:18.329Z,100.00
2023-09-17T08:41:44.542Z,100.00
2023-09-17T08:44:10.929Z,100.00
2023-09-17T08:46:37.260Z,100.00
2023-09-17T08:49:03.588Z,100.00
2023-09-17T08:51:30.809Z,100.00
2023-09-17T08:53:57.026Z,100.00
2023-09-17T08:56:23.268Z,96.29
2023-09-17T08:58:49.604Z,100.00
2023-09-17T09:01:15.848Z,95.88
2023-09-17T09:03:42.194Z,100.00
2023-09-17T09:06:08.525Z,100.00
2023-09-17T09:08:34.812Z,100.00
2023-09-17T09:11:02.035Z,100.00
2023-09-17T09:13:28.546Z,100.00
2023-09-17T09:15:54.807Z,100.00
2023-09-17T09:18:21.269Z,100.00
2023-09-17T09:20:47.492Z,100.00
2023-09-17T09:23:13.756Z,100.00
2023-09-17T09:25:39.978Z,100.00
2023-09-17T09:28:06.195Z,100.00
2023-09-17T09:30:36.108Z,100.00
2023-09-17T09:33:02.369Z,100.00
2023-09-17T09:35:28.687Z,100.00
2023-09-17T09:37:55.040Z,100.00
2023-09-17T09:40:21.299Z,100.00
2023-09-17T09:42:47.601Z,100.00
2023-09-17T09:45:13.884Z,100.00
2023-09-17T09:47:40.058Z,100.00
2023-09-17T09:50:06.266Z,100.00
2023-09-17T09:52:32.633Z,100.00
2023-09-17T09:54:58.919Z,100.00
2023-09-17T09:57:25.154Z,100.00
2023-09-17T09:59:51.495Z,100.00
2023-09-17T10:02:17.768Z,100.00
2023-09-17T10:04:44.076Z,100.00
2023-09-17T10:07:10.337Z,100.00
2023-09-17T10:09:36.547Z,100.00
2023-09-17T10:12:02.774Z,100.00
2023-09-17T10:14:29.038Z,100.00
2023-09-17T10:16:55.318Z,100.00
2023-09-17T10:19:21.530Z,100.00
2023-09-17T10:21:47.732Z,100.00
2023-09-17T10:24:13.976Z,100.00
2023-09-17T10:26:40.209Z,100.00
2023-09-17T10:29:06.454Z,100.00
2023-09-17T10:31:32.821Z,100.00
2023-09-17T10:33:59.120Z,100.00
2023-09-17T10:36:25.346Z,100.00
2023-09-17T10:38:51.594Z,100.00
2023-09-17T10:41:17.827Z,98.70
2023-09-17T10:43:44.059Z,98.39
2023-09-17T10:46:10.309Z,96.46
2023-09-17T10:48:36.525Z,100.00
2023-09-17T10:51:02.708Z,93.91
2023-09-17T10:53:28.976Z,97.89
2023-09-17T10:55:55.265Z,92.87
2023-09-17T10:58:21.631Z,96.21
2023-09-17T11:00:47.887Z,100.00
2023-09-17T11:03:14.191Z,95.27
2023-09-17T11:05:40.522Z,93.04
2023-09-17T11:08:06.804Z,95.91
2023-09-17T11:10:33.244Z,96.04
2023-09-17T11:12:59.553Z,91.55
2023-09-17T11:15:25.777Z,88.06
2023-09-17T11:17:52.128Z,91.05
2023-09-17T11:20:18.435Z,88.29
2023-09-17T11:22:44.735Z,88.13
2023-09-17T11:25:11.017Z,85.85
2023-09-17T11:27:37.200Z,84.54
2023-09-17T11:30:03.407Z,92.79
2023-09-17T11:32:29.664Z,88.72
2023-09-17T11:34:55.978Z,88.27
2023-09-17T11:37:22.298Z,85.23
2023-09-17T11:39:48.491Z,83.23
2023-09-17T11:42:14.901Z,91.12
2023-09-17T11:44:41.193Z,83.75
2023-09-17T11:47:07.412Z,80.26
2023-09-17T11:49:33.775Z,80.38
2023-09-17T11:52:00.221Z,83.07
2023-09-17T11:54:26.454Z,85.75
2023-09-17T11:56:52.665Z,84.62
2023-09-17T11:59:18.834Z,86.36
2023-09-17T12:01:45.151Z,87.02
2023-09-17T12:04:11.524Z,85.49
2023-09-17T12:06:37.759Z,90.35
2023-09-17T12:09:03.980Z,89.56
2023-09-17T12:11:30.243Z,85.09
2023-09-17T12:13:56.436Z,81.20
2023-09-17T12:16:22.671Z,88.04
2023-09-17T12:18:49.892Z,87.66
2023-09-17T12:21:19.478Z,84.58
2023-09-17T12:23:45.677Z,84.30
2023-09-17T12:26:11.882Z,77.63
2023-09-17T12:28:38.158Z,84.22
2023-09-17T12:31:04.456Z,80.26
2023-09-17T12:33:30.710Z,80.88
2023-09-17T12:35:56.889Z,79.24
2023-09-17T12:38:23.079Z,81.38
2023-09-17T12:40:49.368Z,75.68
2023-09-17T12:43:15.661Z,73.94
2023-09-17T12:45:41.917Z,77.78
2023-09-17T12:48:08.190Z,79.11
2023-09-17T12:50:34.481Z,71.41
2023-09-17T12:53:00.721Z,71.57
2023-09-17T12:55:26.944Z,72.43
2023-09-17T12:57:53.171Z,74.55
2023-09-17T13:00:19.445Z,79.08
2023-09-17T13:02:45.781Z,75.21
2023-09-17T13:05:12.015Z,79.72
2023-09-17T13:07:38.293Z,73.74
2023-09-17T13:10:04.596Z,70.80
2023-09-17T13:12:30.792Z,68.86
2023-09-17T13:14:57.066Z,70.66
2023-09-17T13:17:23.271Z,72.91
2023-09-17T13:19:49.521Z,70.83
2023-09-17T13:22:15.819Z,77.52
2023-09-17T13:24:42.021Z,72.11
2023-09-17T13:27:08.186Z,69.01
2023-09-17T13:29:34.430Z,68.27
2023-09-17T13:32:00.731Z,71.09
2023-09-17T13:34:26.984Z,67.17
2023-09-17T13:36:53.208Z,68.97
2023-09-17T13:39:19.418Z,65.12
2023-09-17T13:41:45.621Z,64.59
2023-09-17T13:44:11.982Z,62.27
2023-09-17T13:46:38.233Z,64.14
2023-09-17T13:49:04.520Z,58.13
2023-09-17T13:51:30.709Z,60.96
2023-09-17T13:53:56.916Z,58.26
2023-09-17T13:56:23.118Z,59.98
2023-09-17T13:58:49.446Z,59.39
2023-09-17T14:01:15.809Z,56.08
2023-09-17T14:03:42.003Z,66.97
2023-09-17T14:06:08.219Z,56.51
2023-09-17T14:08:34.427Z,59.59
2023-09-17T14:11:00.728Z,55.62
2023-09-17T14:13:26.994Z,56.92
2023-09-17T14:15:53.216Z,58.41
2023-09-17T14:18:19.453Z,53.35
2023-09-17T14:20:45.685Z,55.14
2023-09-17T14:23:11.983Z,54.87
2023-09-17T14:25:38.281Z,55.15
2023-09-17T14:28:04.593Z,54.59
2023-09-17T14:30:30.795Z,54.46
2023-09-17T14:32:57.151Z,53.97
2023-09-17T14:35:23.578Z,58.26
2023-09-17T14:37:49.878Z,54.50
2023-09-17T14:40:16.158Z,54.24
2023-09-17T14:42:42.360Z,56.08
2023-09-17T14:45:08.588Z,54.73
2023-09-17T14:47:34.939Z,56.58
2023-09-17T14:50:01.264Z,58.32
2023-09-17T14:52:27.638Z,55.56
2023-09-17T14:54:54.133Z,51.17
2023-09-17T14:57:20.504Z,52.74
2023-09-17T14:59:46.735Z,52.91
2023-09-17T15:02:13.107Z,52.53
2023-09-17T15:04:39.560Z,52.69
2023-09-17T15:07:05.940Z,52.51
2023-09-17T15:09:32.170Z,51.29
2023-09-17T15:11:58.427Z,50.61
2023-09-17T15:14:25.733Z,49.99
2023-09-17T15:16:52.069Z,52.31
2023-09-17T15:19:18.326Z,51.02
2023-09-17T15:21:44.577Z,49.35
2023-09-17T15:24:10.804Z,48.56
2023-09-17T15:26:37.093Z,47.19
2023-09-17T15:29:03.334Z,48.41
2023-09-17T15:31:29.569Z,46.48
2023-09-17T15:33:55.970Z,46.57
2023-09-17T15:36:22.275Z,48.79
2023-09-17T15:38:48.455Z,46.15
2023-09-17T15:41:14.703Z,49.17
2023-09-17T15:43:41.002Z,49.55
2023-09-17T15:46:07.293Z,49.79
2023-09-17T15:48:33.530Z,47.39
2023-09-17T15:50:59.743Z,50.66
2023-09-17T15:53:25.936Z,47.76
2023-09-17T15:55:52.234Z,49.89
2023-09-17T15:58:18.456Z,50.28
2023-09-17T16:00:44.726Z,51.78
2023-09-17T16:03:11.061Z,55.15
2023-09-17T16:05:37.383Z,55.93
2023-09-17T16:08:03.660Z,58.12
2023-09-17T16:10:29.905Z,60.41
2023-09-17T16:12:58.071Z,61.09
2023-09-17T16:15:24.521Z,65.59
2023-09-17T16:17:50.819Z,66.76
2023-09-17T16:20:17.174Z,70.01
2023-09-17T16:22:43.415Z,78.36
2023-09-17T16:25:09.751Z,75.16
2023-09-17T16:27:36.047Z,77.03
2023-09-17T16:30:02.280Z,78.52
2023-09-17T16:32:28.628Z,76.48
2023-09-17T16:34:54.962Z,80.60
2023-09-17T16:37:21.154Z,80.66
2023-09-17T16:39:47.330Z,84.91
2023-09-17T16:42:13.583Z,86.86
2023-09-17T16:44:39.825Z,87.90
2023-09-17T16:47:06.145Z,88.21
2023-09-17T16:49:32.422Z,87.75
2023-09-17T16:51:58.704Z,90.29
2023-09-17T16:54:24.920Z,92.99
2023-09-17T16:56:51.169Z,92.99
2023-09-17T16:59:17.433Z,97.38
2023-09-17T17:01:43.865Z,95.48
2023-09-17T17:04:10.322Z,95.73
2023-09-17T17:06:36.716Z,97.08
2023-09-17T17:09:02.977Z,97.82
2023-09-17T17:11:29.174Z,100.00
2023-09-17T17:13:55.730Z,100.00
2023-09-17T17:16:22.159Z,100.00
2023-09-17T17:18:48.366Z,100.00
2023-09-17T17:21:14.630Z,100.00
2023-09-17T17:23:40.879Z,100.00
2023-09-17T17:26:07.113Z,100.00
2023-09-17T17:28:33.434Z,100.00
2023-09-17T17:30:59.746Z,100.00
2023-09-17T17:33:26.065Z,100.00
2023-09-17T17:35:52.277Z,100.00
2023-09-17T17:38:18.502Z,100.00
2023-09-17T17:40:44.790Z,100.00
2023-09-17T17:43:11.082Z,100.00
2023-09-17T17:45:37.309Z,100.00
2023-09-17T17:48:03.565Z,100.00
2023-09-17T17:50:29.883Z,100.00
2023-09-17T17:52:56.208Z,100.00
2023-09-17T17:55:22.469Z,100.00
2023-09-17T17:57:48.719Z,100.00
2023-09-17T18:00:14.951Z,100.00
2023-09-17T18:02:41.426Z,100.00
2023-09-17T18:05:07.894Z,100.00
2023-09-17T18:07:36.969Z,100.00
2023-09-17T18:10:03.315Z,100.00
2023-09-17T18:12:29.560Z,100.00
2023-09-17T18:14:55.863Z,100.00
2023-09-17T18:17:22.188Z,100.00
2023-09-17T18:19:48.847Z,100.00
2023-09-17T18:22:15.094Z,100.00
2023-09-17T18:24:44.157Z,100.00
2023-09-17T18:27:10.403Z,100.00
2023-09-17T18:29:36.626Z,100.00
2023-09-17T18:32:02.849Z,100.00
2023-09-17T18:34:29.086Z,100.00
2023-09-17T18:36:55.329Z,100.00
2023-09-17T18:39:21.542Z,100.00
2023-09-17T18:41:47.739Z,100.00
2023-09-17T18:44:14.020Z,100.00
2023-09-17T18:46:40.317Z,100.00
2023-09-17T18:49:06.532Z,100.00
2023-09-17T18:51:32.724Z,100.00
2023-09-17T18:53:58.984Z,100.00
2023-09-17T18:56:35.480Z,100.00
2023-09-17T18:59:04.461Z,100.00
2023-09-17T19:01:30.708Z,100.00
2023-09-17T19:03:57.242Z,100.00
2023-09-17T19:06:23.805Z,100.00
2023-09-17T19:08:50.010Z,100.00
2023-09-17T19:11:16.371Z,100.00
2023-09-17T19:13:42.655Z,100.00
2023-09-17T19:16:10.226Z,100.00
2023-09-17T19:18:36.449Z,100.00
2023-09-17T19:21:07.805Z,100.00
2023-09-17T19:23:41.700Z,100.00
2023-09-17T19:26:08.002Z,100.00
2023-09-17T19:28:34.247Z,100.00
2023-09-17T19:31:00.431Z,100.00
2023-09-17T19:33:26.682Z,100.00
2023-09-17T19:35:52.968Z,100.00
2023-09-17T19:38:19.247Z,100.00
2023-09-17T19:40:45.557Z,100.00
2023-09-17T19:43:11.934Z,100.00
2023-09-17T19:45:38.220Z,100.00
2023-09-17T19:48:04.568Z,100.00
2023-09-17T19:50:30.851Z,100.00
2023-09-17T19:52:57.098Z,100.00
2023-09-17T19:55:23.329Z,100.00
2023-09-17T19:57:49.619Z,100.00
2023-09-17T20:00:15.837Z,100.00
2023-09-17T20:02:42.164Z,100.00
2023-09-17T20:05:08.482Z,100.00
2023-09-17T20:07:34.773Z,100.00
2023-09-17T20:10:01.028Z,100.00
2023-09-17T20:12:27.288Z,100.00
2023-09-17T20:14:53.496Z,100.00
2023-09-17T20:17:19.900Z,100.00
2023-09-17T20:19:46.183Z,100.00
2023-09-17T20:22:12.422Z,100.00
2023-09-17T20:24:38.709Z,100.00
2023-09-17T20:27:04.980Z,100.00
2023-09-17T20:29:31.296Z,100.00
2023-09-17T20:31:57.594Z,100.00
2023-09-17T20:34:27.378Z,100.00
2023-09-17T20:36:53.635Z,100.00
2023-09-17T20:39:19.955Z,100.00
2023-09-17T20:41:46.246Z,100.00
2023-09-17T20:44:12.474Z,100.00
2023-09-17T20:46:38.726Z,100.00
2023-09-17T20:49:04.970Z,100.00
2023-09-17T20:51:31.170Z,100.00
2023-09-17T20:53:57.436Z,100.00
2023-09-17T20:56:26.419Z,100.00
2023-09-17T20:58:52.812Z,100.00
2023-09-17T21:01:19.231Z,100.00
2023-09-17T21:03:45.554Z,100.00
2023-09-17T21:06:11.841Z,100.00
2023-09-17T21:08:38.016Z,100.00
2023-09-17T21:11:04.377Z,100.00
2023-09-17T21:13:30.649Z,100.00
2023-09-17T21:15:56.936Z,100.00
2023-09-17T21:18:23.211Z,100.00
2023-09-17T21:20:49.395Z,100.00
2023-09-17T21:23:15.658Z,100.00
2023-09-17T21:25:41.921Z,100.00
2023-09-17T21:28:08.158Z,100.00
2023-09-17T21:30:34.405Z,100.00
2023-09-17T21:33:00.741Z,100.00
2023-09-17T21:35:27.010Z,100.00
2023-09-17T21:37:53.260Z,100.00
2023-09-17T21:40:19.507Z,100.00
2023-09-17T21:42:45.725Z,100.00
2023-09-17T21:45:11.954Z,100.00
2023-09-17T21:47:38.215Z,100.00
2023-09-17T21:50:04.510Z,100.00
2023-09-17T21:52:30.761Z,100.00
2023-09-17T21:54:57.042Z,100.00
2023-09-17T21:57:23.236Z,100.00
2023-09-17T21:59:49.484Z,100.00
2023-09-17T22:02:15.728Z,100.00
2023-09-17T22:04:42.014Z,100.00
2023-09-17T22:07:08.205Z,100.00
2023-09-17T22:09:34.434Z,100.00
2023-09-17T22:12:00.747Z,100.00
2023-09-17T22:14:27.021Z,100.00
2023-09-17T22:16:53.400Z,100.00
2023-09-17T22:19:19.692Z,100.00
2023-09-17T22:21:45.924Z,100.00
2023-09-17T22:24:12.140Z,100.00
2023-09-17T22:26:38.335Z,100.00
2023-09-17T22:29:04.549Z,100.00
2023-09-17T22:31:30.847Z,100.00
2023-09-17T22:33:59.452Z,100.00
2023-09-17T22:36:25.688Z,100.00
2023-09-17T22:38:52.148Z,100.00
2023-09-17T22:41:18.644Z,100.00
2023-09-17T22:43:44.922Z,100.00
2023-09-17T22:46:11.148Z,100.00
2023-09-17T22:48:37.383Z,100.00
2023-09-17T22:51:03.611Z,100.00
2023-09-17T22:53:29.863Z,100.00
2023-09-17T22:55:56.143Z,100.00
2023-09-17T22:58:22.392Z,100.00
2023-09-17T23:00:48.643Z,100.00
2023-09-17T23:03:14.902Z,100.00
2023-09-17T23:05:41.297Z,100.00
2023-09-17T23:08:07.576Z,100.00
2023-09-17T23:10:33.812Z,100.00
2023-09-17T23:13:00.035Z,100.00
2023-09-17T23:15:26.207Z,100.00
2023-09-17T23:17:52.482Z,100.00
2023-09-17T23:20:18.733Z,100.00
2023-09-17T23:22:44.959Z,100.00
2023-09-17T23:25:11.177Z,100.00
2023-09-17T23:27:37.382Z,100.00
2023-09-17T23:30:03.603Z,100.00
2023-09-17T23:32:29.869Z,100.00
2023-09-17T23:34:56.092Z,100.00
2023-09-17T23:37:22.270Z,100.00
2023-09-17T23:39:48.472Z,100.00
2023-09-17T23:42:15.893Z,100.00
2023-09-17T23:44:42.095Z,100.00
2023-09-17T23:47:08.358Z,100.00
2023-09-17T23:49:34.636Z,100.00
2023-09-17T23:52:00.872Z,100.00
2023-09-17T23:54:27.078Z,100.00
2023-09-17T23:56:53.272Z,100.00
2023-09-17T23:59:19.621Z,100.00
